Time;durP1;ratioP1;P1;durP2;ratioP2;P2;SDS_P1;SDS_P2;PMS_P1;PMS_P2;Temp;Humidity;BMP_temperature;BMP_pressure;BME280_temperature;BME280_humidity;BME280_pressure;Samples;Min_cycle;Max_cycle;Signal;HPM_P1;HPM_P2
2022/11/21 06:25:43;;;;;;;85.03;53.45;;;;;;;4.59;83.24;93607.94;1726919;80;21025;-86
2022/11/21 06:28:11;;;;;;;117.85;64.85;;;;;;;4.57;83.29;93606.87;1752408;80;21027;-84
2022/11/21 06:30:43;;;;;;;108.83;59.80;;;;;;;4.56;82.92;93598.52;1663150;82;21017;-83
2022/11/21 06:33:13;;;;;;;107.22;59.58;;;;;;;4.58;83.34;93602.33;1702488;81;22565;-85
2022/11/21 06:35:44;;;;;;;121.72;66.90;;;;;;;4.68;83.12;93587.63;1728912;81;21055;-87
2022/11/21 06:40:39;;;;;;;103.05;59.13;;;;;;;4.81;83.02;93577.46;1654515;86;21130;-85
2022/11/21 06:43:09;;;;;;;138.35;78.20;;;;;;;4.84;82.16;93577.20;1650292;86;21603;-83
2022/11/21 06:45:41;;;;;;;159.78;86.02;;;;;;;4.75;81.83;93568.33;1650639;84;21959;-86
2022/11/21 06:48:11;;;;;;;145.75;84.35;;;;;;;4.70;81.79;93574.33;1643185;86;21130;-85
2022/11/21 06:50:40;;;;;;;95.15;60.38;;;;;;;4.68;81.95;93566.42;1614032;88;21075;-86
2022/11/21 06:53:13;;;;;;;106.15;61.23;;;;;;;4.71;82.21;93558.16;1625072;87;21114;-89
2022/11/21 06:55:42;;;;;;;97.35;60.90;;;;;;;4.75;81.97;93551.98;1615346;86;21147;-91
2022/11/21 06:58:18;;;;;;;91.10;58.50;;;;;;;4.78;82.06;93544.29;1613368;86;21139;-86
2022/11/21 07:00:51;;;;;;;241.90;132.67;;;;;;;4.80;81.65;93544.61;1561147;87;21110;-89
2022/11/21 07:03:20;;;;;;;129.27;79.37;;;;;;;4.84;81.60;93562.21;1585758;89;21025;-86
2022/11/21 07:05:49;;;;;;;117.80;69.60;;;;;;;4.83;81.60;93553.27;1572954;89;21122;-86
2022/11/21 07:08:16;;;;;;;107.00;67.47;;;;;;;4.83;81.40;93553.27;1579600;88;21202;-86
2022/11/21 07:10:45;;;;;;;157.05;97.20;;;;;;;4.90;81.74;93559.86;1560311;89;21213;-88
2022/11/21 07:13:22;;;;;;;154.18;92.08;;;;;;;5.07;81.65;93557.73;1539194;90;21614;-89
2022/11/21 07:16:19;;;;;;;145.38;88.07;;;;;;;5.15;81.37;93558.41;1543529;91;21301;-90
2022/11/21 07:19:04;;;;;;;164.18;99.95;;;;;;;5.24;80.83;93570.78;1462307;97;21148;-86
2022/11/21 07:21:37;;;;;;;123.02;76.72;;;;;;;5.30;80.41;93564.91;1408480;98;21185;-87
2022/11/21 07:24:23;;;;;;;143.85;89.37;;;;;;;5.28;79.62;93557.78;1370833;102;21213;-90
2022/11/21 07:27:02;;;;;;;120.08;74.12;;;;;;;5.13;79.33;93559.46;1358912;105;21268;-88
2022/11/21 07:29:50;;;;;;;118.67;74.70;;;;;;;5.05;79.48;93562.28;1316073;104;21207;-90
2022/11/21 07:32:31;;;;;;;91.25;60.10;;;;;;;4.99;79.62;93566.75;1240932;111;21226;-93
2022/11/21 07:35:19;;;;;;;106.12;69.82;;;;;;;5.05;80.45;93563.64;1245911;113;21411;-88
2022/11/21 07:38:00;;;;;;;121.82;80.05;;;;;;;5.23;80.17;93554.85;1239852;113;21724;-90
2022/11/21 07:40:45;;;;;;;125.10;87.42;;;;;;;5.34;79.67;93551.91;1242215;113;21344;-86
2022/11/21 07:43:34;;;;;;;115.50;80.25;;;;;;;5.33;78.72;93561.30;1219030;114;21305;-93
2022/11/21 07:49:13;;;;;;;106.72;68.75;;;;;;;5.11;78.98;93552.33;1259600;110;21364;-94
2022/11/21 07:51:58;;;;;;;128.38;88.30;;;;;;;4.95;78.80;93540.22;1199591;117;21361;-87
2022/11/21 07:54:44;;;;;;;211.50;137.90;;;;;;;4.75;79.17;93539.73;1206921;114;21776;-92
2022/11/21 08:01:20;;;;;;;184.43;116.20;;;;;;;4.58;79.97;93538.34;1253488;109;21172;-91
2022/11/21 08:04:10;;;;;;;201.67;123.18;;;;;;;4.47;80.66;93540.66;1258328;110;21267;-88
2022/11/21 08:07:11;;;;;;;193.82;116.20;;;;;;;4.48;81.16;93538.09;1291944;108;21250;-84
2022/11/21 08:09:46;;;;;;;221.82;130.57;;;;;;;4.49;81.14;93539.62;1343712;97;21293;-85
2022/11/21 08:12:29;;;;;;;215.18;131.57;;;;;;;4.45;81.16;93534.11;1360690;102;21780;-85
2022/11/21 08:15:06;;;;;;;211.72;129.68;;;;;;;4.42;81.42;93539.82;1292654;108;21242;-83
2022/11/21 08:17:37;;;;;;;223.62;134.72;;;;;;;4.51;81.86;93534.49;1254536;111;21333;-76
2022/11/21 08:20:16;;;;;;;180.45;116.97;;;;;;;4.63;81.91;93536.41;1281364;109;21429;-79
2022/11/21 08:22:47;;;;;;;187.18;122.80;;;;;;;4.65;81.03;93529.95;1252562;111;21238;-84
2022/11/21 08:25:26;;;;;;;188.87;124.87;;;;;;;4.53;80.84;93530.73;1260286;111;21248;-85
2022/11/21 08:28:01;;;;;;;225.35;140.28;;;;;;;4.48;81.34;93526.42;1248589;113;21795;-82
2022/11/21 08:30:30;;;;;;;251.67;155.15;;;;;;;4.52;81.57;93525.13;1229542;115;21247;-88
2022/11/21 08:32:59;;;;;;;235.95;146.85;;;;;;;4.55;81.56;93530.27;1234485;114;22021;-87
2022/11/21 08:35:51;;;;;;;205.47;124.60;;;;;;;4.58;81.63;93528.06;1223429;114;21178;-87
2022/11/21 08:38:30;;;;;;;158.63;103.42;;;;;;;4.58;81.29;93528.81;1209762;114;21239;-85
2022/11/21 08:44:03;;;;;;;184.85;122.25;;;;;;;4.63;81.09;93525.52;1167645;119;21389;-86
2022/11/21 08:46:38;;;;;;;210.10;134.18;;;;;;;4.66;81.18;93513.00;1182194;118;21411;-88
2022/11/21 08:49:14;;;;;;;222.17;142.72;;;;;;;4.60;80.86;93518.23;1185788;117;21576;-88
2022/11/21 08:51:54;;;;;;;256.65;156.30;;;;;;;4.57;81.42;93511.56;1174631;118;21338;-91
2022/11/21 08:54:25;;;;;;;237.93;150.32;;;;;;;4.59;81.61;93509.91;1201309;117;21365;-86
2022/11/21 08:56:53;;;;;;;227.82;142.95;;;;;;;4.67;81.41;93507.72;1214272;117;21810;-84
2022/11/21 08:59:28;;;;;;;216.05;142.05;;;;;;;4.66;81.20;93508.33;1206643;116;21268;-83
2022/11/21 09:02:03;;;;;;;206.23;136.92;;;;;;;4.64;81.14;93499.06;1232669;114;21317;-84
2022/11/21 09:04:40;;;;;;;230.03;151.35;;;;;;;4.66;81.27;93494.71;1245038;113;21264;-85
2022/11/21 09:07:14;;;;;;;244.82;157.57;;;;;;;4.75;81.92;93494.03;1272495;111;21268;-89
2022/11/21 09:09:49;;;;;;;215.92;146.13;;;;;;;4.82;81.22;93486.36;1243172;111;21273;-91
2022/11/21 09:12:18;;;;;;;215.52;143.85;;;;;;;4.87;81.15;93483.09;1317732;105;21351;-87
2022/11/21 09:18:06;;;;;;;202.47;137.77;;;;;;;4.85;80.73;93477.33;1347519;104;21087;-86
2022/11/21 09:20:48;;;;;;;198.87;134.90;;;;;;;4.87;80.70;93476.87;1312148;108;21171;-90
2022/11/21 09:23:26;;;;;;;197.72;136.72;;;;;;;4.93;80.77;93467.70;1283356;106;21369;-91
2022/11/21 09:26:04;;;;;;;192.22;135.37;;;;;;;5.01;80.54;93463.51;1282029;108;21257;-90
2022/11/21 09:28:47;;;;;;;199.50;134.20;;;;;;;5.04;80.11;93464.02;1259533;110;22507;-87
2022/11/21 09:31:31;;;;;;;182.17;128.05;;;;;;;5.00;79.90;93461.98;1229241;114;21247;-91
2022/11/21 09:34:05;;;;;;;187.90;129.80;;;;;;;4.95;80.14;93458.48;1246531;111;21358;-85
2022/11/21 09:36:39;;;;;;;188.37;130.97;;;;;;;4.93;80.20;93456.05;1226479;113;21231;-91
2022/11/21 09:39:16;;;;;;;197.98;136.57;;;;;;;4.91;79.96;93451.63;1217295;114;21272;-90
2022/11/21 09:42:34;;;;;;;210.35;145.75;;;;;;;4.89;80.11;93447.99;1184996;118;21211;-88
2022/11/21 09:45:37;;;;;;;221.15;147.57;;;;;;;4.87;79.96;93445.54;1158137;122;21208;-84
2022/11/21 09:48:33;;;;;;;208.35;145.15;;;;;;;4.89;80.41;93439.82;1185433;118;21309;-91
2022/11/21 09:54:07;;;;;;;195.07;135.90;;;;;;;4.96;79.97;93430.02;1179062;120;21246;-92
2022/11/21 09:57:01;;;;;;;188.15;132.25;;;;;;;4.97;79.94;93427.45;1151820;121;21231;-89
2022/11/21 10:12:58;;;;;;;153.72;106.85;;;;;;;4.91;79.53;93425.16;1202495;117;21263;-89
2022/11/21 10:18:01;;;;;;;;;;;;;;;;;;;;;
2022/11/21 10:21:53;;;;;;;202.05;122.47;;;;;;;4.82;80.73;93412.06;1181672;117;21331;-89
2022/11/21 10:25:04;;;;;;;206.10;127.25;;;;;;;4.80;80.48;93404.32;1230095;115;21311;-88
2022/11/21 10:27:55;;;;;;;201.02;128.20;;;;;;;4.88;80.55;93397.44;1218068;113;21368;-88
2022/11/21 10:30:28;;;;;;;211.72;136.85;;;;;;;4.94;80.17;93395.66;1203649;117;22028;-84
2022/11/21 10:33:09;;;;;;;229.82;148.57;;;;;;;5.01;80.28;93395.39;1210392;115;21640;-83
2022/11/21 10:35:55;;;;;;;175.70;120.30;;;;;;;5.12;80.50;93398.50;1224414;114;21281;-89
2022/11/21 10:38:29;;;;;;;249.42;151.97;;;;;;;5.25;79.87;93389.03;1230957;113;21299;-89
2022/11/21 10:41:23;;;;;;;257.35;166.88;;;;;;;5.23;79.43;93394.17;1247698;112;21191;-87
2022/11/21 10:47:08;;;;;;;263.57;170.10;;;;;;;5.05;79.16;93387.87;1230702;112;22090;-88
2022/11/21 10:49:49;;;;;;;313.48;208.17;;;;;;;4.91;79.24;93389.73;1227993;113;21371;-90
2022/11/21 10:52:33;;;;;;;;;;;;;;;;;;;;;
2022/11/21 10:56:25;;;;;;;237.30;159.45;;;;;;;4.93;80.11;93390.66;1234546;113;21193;-91
2022/11/21 10:59:02;;;;;;;;;;;;;;;;;;;;;
2022/11/21 11:02:42;;;;;;;253.22;165.28;;;;;;;5.12;79.83;93376.70;1287120;106;22738;-89
2022/11/21 11:05:27;;;;;;;208.65;146.47;;;;;;;5.05;79.57;93374.83;1298274;107;21378;-88
2022/11/21 11:08:27;;;;;;;213.32;146.98;;;;;;;4.99;79.35;93373.27;1287732;108;21252;-85
2022/11/21 11:11:09;;;;;;;228.25;156.60;;;;;;;5.04;79.92;93375.45;1309567;103;21256;-88
2022/11/21 11:13:59;;;;;;;266.60;182.60;;;;;;;5.12;79.50;93375.33;1330742;103;21102;-89
2022/11/21 11:16:38;;;;;;;229.68;155.57;;;;;;;5.14;79.49;93371.55;1357979;104;21723;-89
2022/11/21 11:20:51;;;;;;;235.35;159.75;;;;;;;5.12;79.27;93375.33;;;;
2022/11/21 11:23:35;;;;;;;231.30;162.15;;;;;;;5.10;79.46;93371.52;1253880;110;21149;-88
2022/11/21 11:26:29;;;;;;;237.12;164.67;;;;;;;5.06;79.32;93364.86;1213150;113;21331;-85
2022/11/21 11:51:43;;;;;;;221.07;154.00;;;;;;;5.09;79.11;93368.05;1193302;117;21368;-88
2022/11/21 11:54:18;;;;;;;208.95;147.60;;;;;;;4.98;79.25;93359.49;1184927;116;21239;-87
2022/11/21 13:16:11;;;;;;;110.78;81.10;;;;;;;5.72;79.75;93353.34;1820307;76;22576;-80
2022/11/21 13:18:45;;;;;;;112.93;80.80;;;;;;;5.73;79.00;93350.77;1767149;78;20998;-79
2022/11/21 13:21:42;;;;;;;127.42;89.77;;;;;;;5.65;78.55;93353.63;1767313;79;21248;-79
2022/11/21 13:24:10;;;;;;;149.72;103.05;;;;;;;5.51;78.58;93341.31;1785584;78;20945;-81
2022/11/21 13:26:45;;;;;;;156.40;107.90;;;;;;;5.45;78.67;93351.27;1784742;79;20913;-81
2022/11/21 13:29:12;;;;;;;156.50;108.67;;;;;;;5.40;78.78;93357.31;1782064;78;20962;-80
2022/11/21 13:31:40;;;;;;;157.75;104.70;;;;;;;5.35;78.66;93350.31;1759826;79;21004;-82
2022/11/21 13:34:32;;;;;;;118.97;76.30;;;;;;;5.24;78.73;93349.35;1764148;80;21185;-83
2022/11/21 13:36:59;;;;;;;97.57;64.77;;;;;;;5.20;79.41;93357.53;1775173;79;21071;-81
2022/11/21 13:39:31;;;;;;;142.93;94.20;;;;;;;5.19;79.67;93364.77;1776903;80;21594;-75
2022/11/21 13:44:49;;;;;;;201.58;125.12;;;;;;;5.14;79.58;93358.55;1768528;79;20936;-83
2022/11/21 13:47:46;;;;;;;210.93;135.20;;;;;;;5.03;80.15;93368.48;1753243;78;21115;-84
2022/11/21 13:50:35;;;;;;;197.98;128.47;;;;;;;4.98;80.51;93364.94;1625620;85;20981;-80
2022/11/21 13:53:38;;;;;;;227.93;146.82;;;;;;;4.98;80.75;93362.22;1553381;90;21291;-83
2022/11/21 13:56:43;;;;;;;221.27;138.77;;;;;;;4.90;80.47;93366.42;1549812;91;21083;-84
2022/11/21 13:59:47;;;;;;;225.22;139.18;;;;;;;4.78;80.91;93360.42;1546339;91;21966;-81
2022/11/21 14:02:54;;;;;;;225.75;138.60;;;;;;;4.82;81.59;93356.97;1545907;91;21255;-82
2022/11/21 15:04:44;;;;;;;;;;;;;;;;;;;;;
2022/11/21 15:07:03;;;;;;;143.90;88.35;;;;;;;3.84;85.88;93358.25;1532433;91;21190;-89
2022/11/21 15:09:31;;;;;;;140.25;87.95;;;;;;;3.80;85.80;93361.08;1534974;90;21182;-90
2022/11/21 15:12:06;;;;;;;141.77;85.95;;;;;;;3.76;85.92;93356.36;1526218;91;21151;-92
2022/11/21 15:14:40;;;;;;;136.57;83.20;;;;;;;3.74;86.06;93367.50;1527214;93;21178;-87
2022/11/21 15:17:12;;;;;;;123.75;71.80;;;;;;;3.72;86.18;93362.48;1532952;91;21141;-91
2022/11/21 15:19:41;;;;;;;109.87;68.02;;;;;;;3.72;86.28;93365.20;1524851;91;21065;-89
2022/11/21 15:22:23;;;;;;;123.15;75.62;;;;;;;3.71;86.34;93366.41;1524977;93;21088;-89
2022/11/21 15:24:52;;;;;;;146.28;90.12;;;;;;;3.73;86.48;93365.36;1498703;93;21162;-91
2022/11/21 15:27:26;;;;;;;147.35;91.30;;;;;;;3.77;86.65;93364.67;1496470;94;21052;-87
2022/11/21 15:30:14;;;;;;;148.00;90.32;;;;;;;3.81;86.67;93357.16;1492440;95;21047;-89
2022/11/21 15:33:09;;;;;;;139.52;86.90;;;;;;;3.87;86.78;93358.73;1443869;96;21326;-92
2022/11/21 15:35:56;;;;;;;169.43;101.25;;;;;;;3.98;87.36;93358.55;1467515;94;21303;-88
2022/11/21 15:38:47;;;;;;;164.47;102.35;;;;;;;4.13;87.12;93352.80;1522696;91;21126;-90
2022/11/21 15:41:25;;;;;;;186.15;112.20;;;;;;;4.14;86.11;93357.03;1530701;91;21131;-90
2022/11/21 15:44:16;;;;;;;184.82;114.42;;;;;;;4.08;85.74;93349.87;1543292;90;21063;-89
2022/11/21 15:46:51;;;;;;;200.43;119.30;;;;;;;4.01;85.87;93364.47;1522233;92;21127;-89
2022/11/21 15:49:19;;;;;;;259.90;138.32;;;;;;;3.94;85.87;93365.29;1553141;91;21105;-89
2022/11/21 15:51:48;;;;;;;220.55;130.47;;;;;;;3.90;86.15;93368.12;1534921;91;21061;-90
2022/11/21 15:54:20;;;;;;;235.35;143.22;;;;;;;3.85;86.21;93373.37;1528115;92;21136;-91
2022/11/21 15:56:47;;;;;;;215.90;131.50;;;;;;;3.82;86.42;93368.78;1525634;93;21146;-90
2022/11/21 15:59:14;;;;;;;234.57;142.05;;;;;;;3.84;86.50;93373.95;1513065;93;21215;-91
2022/11/21 16:01:42;;;;;;;236.35;146.50;;;;;;;3.85;86.43;93370.03;1510118;94;21064;-89
2022/11/21 16:04:13;;;;;;;322.55;183.87;;;;;;;3.86;86.40;93367.48;1523896;91;21046;-90
2022/11/21 16:06:40;;;;;;;251.88;148.87;;;;;;;3.87;86.67;93367.64;1535259;91;21049;-89
2022/11/21 16:09:07;;;;;;;247.88;147.87;;;;;;;3.90;86.92;93362.67;1549363;91;21036;-89
2022/11/21 16:14:06;;;;;;;269.68;154.23;;;;;;;4.06;86.95;93367.98;1505556;93;21031;-90
2022/11/21 16:16:36;;;;;;;262.68;151.70;;;;;;;4.15;86.88;93362.64;1503704;93;21661;-89
2022/11/21 16:19:04;;;;;;;270.27;156.12;;;;;;;4.18;86.43;93366.42;1517340;93;21063;-90
2022/11/21 16:21:32;;;;;;;262.82;151.35;;;;;;;4.19;86.27;93367.36;1545497;90;21106;-88
2022/11/21 16:23:59;;;;;;;303.40;164.07;;;;;;;4.13;86.00;93370.48;1612055;87;21141;-87
2022/11/21 16:26:28;;;;;;;303.85;166.97;;;;;;;3.97;85.86;93366.55;1631904;86;21124;-90
2022/11/21 16:28:56;;;;;;;289.52;159.87;;;;;;;3.88;86.21;93369.16;1649378;85;21441;-88
2022/11/21 16:31:27;;;;;;;315.95;176.12;;;;;;;3.85;86.65;93374.11;1646609;86;21516;-89
2022/11/21 16:33:54;;;;;;;317.32;171.62;;;;;;;3.87;86.89;93356.76;1617582;86;21013;-89
2022/11/21 16:36:26;;;;;;;320.15;172.07;;;;;;;3.90;86.79;93367.38;1610196;86;21155;-89
2022/11/21 16:38:54;;;;;;;337.48;180.42;;;;;;;3.83;86.55;93367.00;1598232;88;21074;-89
2022/11/21 16:41:21;;;;;;;325.38;177.17;;;;;;;3.75;86.56;93367.08;1602509;87;21089;-89
2022/11/21 16:43:51;;;;;;;307.18;167.05;;;;;;;3.72;86.98;93370.64;1582878;89;21030;-89
2022/11/21 16:46:21;;;;;;;340.75;176.85;;;;;;;3.71;86.94;93371.09;1581207;89;21155;-87
2022/11/21 16:48:59;;;;;;;335.00;177.70;;;;;;;3.66;86.96;93374.37;1598340;88;21129;-86
2022/11/21 16:51:26;;;;;;;355.02;189.10;;;;;;;3.68;87.51;93378.16;1590880;89;21086;-87
2022/11/21 16:53:53;;;;;;;341.00;185.37;;;;;;;3.80;88.09;93377.98;1641417;84;21060;-87
2022/11/21 16:56:22;;;;;;;341.40;189.87;;;;;;;3.89;87.74;93376.73;1622863;84;21224;-88
2022/11/21 16:58:49;;;;;;;327.22;184.82;;;;;;;3.95;87.59;93381.19;1645924;85;21073;-89
2022/11/21 17:01:18;;;;;;;311.68;174.68;;;;;;;4.02;87.41;93383.66;1605287;87;21240;-89
2022/11/21 17:03:46;;;;;;;328.80;182.65;;;;;;;4.04;86.98;93388.06;1589696;89;21049;-88
2022/11/21 17:06:18;;;;;;;316.33;171.65;;;;;;;4.01;86.56;93394.39;1615434;87;21116;-88
2022/11/21 17:08:46;;;;;;;310.82;180.93;;;;;;;3.95;86.37;93390.70;1577740;87;21117;-87
2022/11/21 17:11:25;;;;;;;363.52;201.80;;;;;;;3.87;86.32;93396.81;1591387;87;21113;-87
2022/11/21 17:13:53;;;;;;;351.80;190.53;;;;;;;3.77;86.47;93399.25;1583143;89;21103;-86
2022/11/21 17:16:21;;;;;;;330.75;190.12;;;;;;;3.71;86.73;93398.29;1608449;85;21029;-87
2022/11/21 17:18:56;;;;;;;318.88;178.70;;;;;;;3.67;86.93;93397.03;1615142;86;20998;-89
2022/11/21 17:21:23;;;;;;;317.20;177.43;;;;;;;3.68;87.07;93403.24;1604313;88;21216;-88
2022/11/21 17:23:50;;;;;;;315.77;179.63;;;;;;;3.69;87.38;93400.69;1613005;87;21098;-86
2022/11/21 17:26:21;;;;;;;386.57;218.05;;;;;;;3.75;87.57;93401.06;1621900;85;21384;-86
2022/11/21 17:28:53;;;;;;;415.23;228.52;;;;;;;3.77;87.52;93404.11;1631789;84;20998;-89
2022/11/21 17:31:20;;;;;;;401.02;219.35;;;;;;;3.74;87.37;93406.34;1597210;86;21053;-88
2022/11/21 17:33:53;;;;;;;371.13;213.15;;;;;;;3.64;87.39;93410.14;1634985;86;21070;-89
2022/11/21 17:36:23;;;;;;;350.25;194.35;;;;;;;3.60;87.70;93401.92;1582830;88;21561;-88
2022/11/21 17:38:54;;;;;;;353.70;194.82;;;;;;;3.59;87.76;93405.25;1628999;86;21120;-89
2022/11/21 17:41:22;;;;;;;384.27;206.87;;;;;;;3.63;87.96;93396.38;1637041;86;21061;-88
2022/11/21 17:43:56;;;;;;;375.87;208.05;;;;;;;3.65;88.02;93385.09;1630624;86;21054;-87
2022/11/21 17:46:27;;;;;;;389.38;211.55;;;;;;;3.73;88.38;93383.04;1613628;87;21032;-91
2022/11/21 17:48:56;;;;;;;420.12;226.50;;;;;;;3.80;88.23;93386.14;1589289;89;21104;-87
2022/11/21 17:51:27;;;;;;;399.27;217.35;;;;;;;3.83;88.09;93388.01;1624711;86;21272;-89
2022/11/21 17:53:54;;;;;;;335.95;181.37;;;;;;;3.90;88.42;93387.77;1565570;89;21552;-88
2022/11/21 17:56:27;;;;;;;315.37;172.35;;;;;;;3.93;87.63;93383.59;1583223;88;21062;-88
2022/11/21 17:58:55;;;;;;;320.55;178.80;;;;;;;3.93;87.56;93378.15;1643307;86;21287;-89
2022/11/21 18:01:22;;;;;;;335.90;179.47;;;;;;;3.93;87.40;93380.87;1636819;86;21145;-89
2022/11/21 21:10:42;;;;;;;207.10;104.65;;;;;;;2.48;95.01;93443.77;1738872;82;20887;-80
2022/11/21 21:13:10;;;;;;;177.38;93.03;;;;;;;2.50;95.07;93433.99;1724736;82;20928;-80
2022/11/21 21:15:37;;;;;;;198.02;104.23;;;;;;;2.56;95.03;93445.10;1730992;82;21053;-79
2022/11/21 21:18:04;;;;;;;229.75;112.15;;;;;;;2.60;94.97;93445.77;1732143;81;21045;-78
2022/11/21 21:20:33;;;;;;;217.60;107.27;;;;;;;2.72;95.34;93450.49;1722019;82;20943;-79
2022/11/21 21:23:00;;;;;;;205.83;101.65;;;;;;;2.81;94.92;93448.68;1718905;81;21034;-78
2022/11/21 21:25:27;;;;;;;166.12;88.20;;;;;;;2.88;94.93;93451.80;1733505;81;21084;-79
2022/11/21 21:27:54;;;;;;;155.52;82.17;;;;;;;2.97;94.68;93454.64;1730566;82;20955;-79
2022/11/21 21:30:21;;;;;;;157.22;83.72;;;;;;;3.01;94.49;93455.30;1728842;82;20972;-79
2022/11/21 21:32:50;;;;;;;172.25;87.88;;;;;;;3.13;94.66;93461.37;1736753;81;21547;-80
2022/11/21 21:35:17;;;;;;;178.70;94.20;;;;;;;3.21;93.92;93454.56;1742511;81;21088;-80
2022/11/21 21:37:45;;;;;;;190.68;96.42;;;;;;;3.23;93.44;93461.69;1731138;81;21248;-79
2022/11/21 21:40:12;;;;;;;179.05;93.55;;;;;;;3.28;93.48;93457.07;1730472;81;21137;-79
2022/11/21 21:42:41;;;;;;;180.67;93.80;;;;;;;3.36;93.18;93456.44;1729665;82;21007;-78
2022/11/21 21:45:10;;;;;;;164.72;87.10;;;;;;;3.39;92.45;93463.72;1714449;81;21031;-79
2022/11/21 21:47:37;;;;;;;175.22;90.20;;;;;;;3.37;92.16;93457.19;1728524;81;21072;-79
2022/11/21 21:50:07;;;;;;;180.67;96.60;;;;;;;3.46;92.58;93462.75;1711307;82;21091;-79
2022/11/21 21:52:36;;;;;;;188.80;93.97;;;;;;;3.57;92.38;93456.58;1721048;82;20942;-79
2022/11/21 21:55:04;;;;;;;175.55;93.33;;;;;;;3.70;91.86;93468.21;1734025;81;21462;-78
2022/11/21 21:57:34;;;;;;;181.43;92.37;;;;;;;3.78;91.19;93476.34;1724551;81;21225;-79
2022/11/21 22:00:00;;;;;;;131.43;72.90;;;;;;;3.84;90.51;93485.47;1722509;82;21003;-79
2022/11/21 22:02:27;;;;;;;123.78;71.33;;;;;;;3.83;89.32;93479.13;1724234;82;21189;-80
2022/11/21 22:04:54;;;;;;;137.22;78.12;;;;;;;3.72;88.73;93486.21;1724853;82;21037;-81
2022/11/21 22:07:27;;;;;;;125.45;72.78;;;;;;;3.68;88.82;93488.28;1685352;83;20978;-80
2022/11/21 22:09:54;;;;;;;108.42;66.20;;;;;;;3.65;88.34;93477.53;1692858;83;21536;-81
2022/11/21 22:12:24;;;;;;;106.70;64.55;;;;;;;3.60;88.09;93487.56;1686207;83;21051;-80
2022/11/21 22:14:51;;;;;;;123.42;72.62;;;;;;;3.57;87.80;93486.49;1670223;84;21931;-81
2022/11/21 22:17:18;;;;;;;141.32;80.92;;;;;;;3.47;87.13;93488.74;1698149;83;21071;-80
2022/11/21 22:19:45;;;;;;;142.65;80.50;;;;;;;3.31;87.06;93479.30;1685980;83;21106;-80
2022/11/21 22:22:12;;;;;;;140.73;78.52;;;;;;;3.19;87.12;93486.81;1705681;82;21040;-81
2022/11/21 22:24:45;;;;;;;127.72;72.47;;;;;;;3.06;87.33;93493.57;1690682;83;21067;-80
2022/11/21 22:27:14;;;;;;;178.07;87.22;;;;;;;3.00;87.70;93489.86;1681281;83;22748;-80
2022/11/21 22:29:41;;;;;;;156.55;81.97;;;;;;;2.94;87.90;93495.66;1687736;82;21022;-80
2022/11/21 22:32:10;;;;;;;155.55;81.95;;;;;;;2.95;88.34;93508.63;1692832;82;21521;-80
2022/11/21 22:34:37;;;;;;;144.10;75.65;;;;;;;2.99;88.49;93502.50;1644389;85;21019;-79
2022/11/21 22:37:04;;;;;;;128.87;68.17;;;;;;;3.04;88.77;93503.36;1680456;83;21568;-80
2022/11/21 22:39:33;;;;;;;128.05;66.85;;;;;;;3.05;88.24;93504.88;1700975;82;21212;-79
2022/11/21 22:42:00;;;;;;;139.80;71.05;;;;;;;2.97;88.07;93504.89;1688796;83;21972;-80
2022/11/21 22:44:29;;;;;;;127.92;66.77;;;;;;;2.93;88.43;93504.23;1704361;82;20996;-80
2022/11/21 22:46:57;;;;;;;122.13;67.97;;;;;;;3.02;89.16;93496.98;1693281;83;21518;-80
2022/11/21 22:49:26;;;;;;;111.65;61.83;;;;;;;3.10;88.65;93498.92;1693672;83;21090;-80
2022/11/21 22:51:54;;;;;;;112.75;62.75;;;;;;;3.10;88.50;93505.70;1706480;83;21261;-80
2022/11/21 22:54:24;;;;;;;117.65;62.30;;;;;;;3.10;88.30;93507.06;1696987;83;21100;-80
2022/11/21 22:56:51;;;;;;;144.15;71.33;;;;;;;3.09;88.07;93506.90;1711034;83;21618;-80
2022/11/21 22:59:20;;;;;;;148.00;74.25;;;;;;;3.08;88.48;93512.91;1676329;83;21521;-80
2022/11/21 23:01:47;;;;;;;149.30;75.52;;;;;;;3.21;88.92;93510.27;1685478;83;21098;-80
2022/11/21 23:04:15;;;;;;;128.18;65.32;;;;;;;3.23;88.29;93511.95;1705229;83;22031;-80
2022/11/21 23:06:42;;;;;;;99.52;54.77;;;;;;;3.21;88.46;93508.91;1711245;82;21767;-80
2022/11/21 23:09:10;;;;;;;112.95;61.55;;;;;;;3.39;89.05;93517.33;1675322;83;21124;-80
2022/11/21 23:11:39;;;;;;;98.97;56.13;;;;;;;3.45;88.25;93507.44;1675056;83;21051;-80
2022/11/21 23:14:07;;;;;;;103.07;56.08;;;;;;;3.50;88.04;93507.06;1661055;84;21195;-80
2022/11/21 23:16:35;;;;;;;101.65;55.20;;;;;;;3.50;87.32;93515.22;1691650;82;21269;-80
2022/11/21 23:19:03;;;;;;;121.57;55.55;;;;;;;3.47;86.61;93517.28;1686639;83;21079;-80
2022/11/21 23:21:32;;;;;;;111.10;56.68;;;;;;;3.47;86.80;93525.44;1700479;83;21471;-80
2022/11/21 23:24:00;;;;;;;111.15;56.77;;;;;;;3.55;86.78;93516.66;1691331;83;21110;-81
2022/11/21 23:26:29;;;;;;;99.92;55.60;;;;;;;3.58;86.19;93514.42;1680206;82;21029;-81
2022/11/21 23:28:58;;;;;;;104.58;55.38;;;;;;;3.58;85.93;93517.14;1684727;82;21503;-80
2022/11/21 23:31:25;;;;;;;92.53;50.33;;;;;;;3.52;85.64;93516.16;1704732;82;20969;-80
2022/11/21 23:33:54;;;;;;;100.47;51.65;;;;;;;3.40;85.54;93516.88;1692800;83;21611;-81
2022/11/21 23:36:22;;;;;;;91.05;50.52;;;;;;;3.31;85.60;93518.12;1686146;83;21508;-80
2022/11/21 23:38:50;;;;;;;118.45;57.75;;;;;;;3.31;86.22;93522.78;1677111;83;21611;-80
2022/11/21 23:41:18;;;;;;;101.35;53.42;;;;;;;3.36;86.41;93518.95;1648819;83;21150;-81
2022/11/21 23:43:45;;;;;;;90.75;46.73;;;;;;;3.50;87.00;93530.78;1693311;83;21165;-81
2022/11/21 23:49:14;;;;;;;76.75;42.13;;;;;;;3.77;85.76;93529.79;1694292;82;21106;-79
2022/11/21 23:51:44;;;;;;;81.20;42.15;;;;;;;3.78;85.33;93532.09;1690342;82;20990;-80
2022/11/21 23:54:11;;;;;;;77.90;43.85;;;;;;;3.75;84.57;93527.52;1692759;83;21419;-80
2022/11/21 23:56:39;;;;;;;74.25;41.98;;;;;;;3.63;84.35;93524.75;1685573;82;21023;-80
2022/11/21 23:59:06;;;;;;;75.15;43.52;;;;;;;3.60;84.36;93524.27;1683560;83;21078;-79
